sensor_id;sensor_type;location;lat;lon;timestamp;P1;durP1;ratioP1;P2;durP2;ratioP2
70049;SDS011;57391;51.306;22.680;2023-07-13T00:02:04;10.30;;;5.30;;
70049;SDS011;57391;51.306;22.680;2023-07-13T00:04:31;14.10;;;5.30;;
70049;SDS011;57391;51.306;22.680;2023-07-13T00:06:58;12.20;;;4.90;;
70049;SDS011;57391;51.306;22.680;2023-07-13T00:09:25;10.20;;;4.80;;
70049;SDS011;57391;51.306;22.680;2023-07-13T00:11:54;12.20;;;4.70;;
70049;SDS011;57391;51.306;22.680;2023-07-13T00:14:24;11.10;;;5.00;;
70049;SDS011;57391;51.306;22.680;2023-07-13T00:16:52;15.40;;;4.80;;
70049;SDS011;57391;51.306;22.680;2023-07-13T00:19:19;10.40;;;5.10;;
70049;SDS011;57391;51.306;22.680;2023-07-13T00:21:47;11.00;;;4.80;;
70049;SDS011;57391;51.306;22.680;2023-07-13T00:24:15;9.60;;;4.90;;
70049;SDS011;57391;51.306;22.680;2023-07-13T00:26:49;11.30;;;4.90;;
70049;SDS011;57391;51.306;22.680;2023-07-13T00:29:16;10.90;;;5.00;;
70049;SDS011;57391;51.306;22.680;2023-07-13T00:31:43;12.10;;;5.10;;
70049;SDS011;57391;51.306;22.680;2023-07-13T00:34:11;8.40;;;5.00;;
70049;SDS011;57391;51.306;22.680;2023-07-13T00:36:38;11.60;;;5.00;;
70049;SDS011;57391;51.306;22.680;2023-07-13T00:39:05;11.10;;;5.40;;
70049;SDS011;57391;51.306;22.680;2023-07-13T00:41:32;10.60;;;5.20;;
70049;SDS011;57391;51.306;22.680;2023-07-13T00:43:59;10.70;;;4.70;;
70049;SDS011;57391;51.306;22.680;2023-07-13T00:46:30;11.60;;;4.80;;
70049;SDS011;57391;51.306;22.680;2023-07-13T00:49:03;9.30;;;5.30;;
70049;SDS011;57391;51.306;22.680;2023-07-13T00:51:52;10.70;;;5.10;;
70049;SDS011;57391;51.306;22.680;2023-07-13T00:54:23;12.30;;;5.10;;
70049;SDS011;57391;51.306;22.680;2023-07-13T00:56:57;14.20;;;5.30;;
70049;SDS011;57391;51.306;22.680;2023-07-13T00:59:27;13.00;;;5.60;;
70049;SDS011;57391;51.306;22.680;2023-07-13T01:01:54;10.10;;;6.10;;
70049;SDS011;57391;51.306;22.680;2023-07-13T01:04:24;13.10;;;5.80;;
70049;SDS011;57391;51.306;22.680;2023-07-13T01:06:52;13.00;;;5.60;;
70049;SDS011;57391;51.306;22.680;2023-07-13T01:09:20;16.60;;;5.70;;
70049;SDS011;57391;51.306;22.680;2023-07-13T01:11:47;15.90;;;5.60;;
70049;SDS011;57391;51.306;22.680;2023-07-13T01:14:15;13.80;;;6.20;;
70049;SDS011;57391;51.306;22.680;2023-07-13T01:16:45;13.70;;;5.40;;
70049;SDS011;57391;51.306;22.680;2023-07-13T01:19:23;12.90;;;5.30;;
70049;SDS011;57391;51.306;22.680;2023-07-13T01:21:56;15.60;;;5.80;;
70049;SDS011;57391;51.306;22.680;2023-07-13T01:24:23;18.10;;;5.50;;
70049;SDS011;57391;51.306;22.680;2023-07-13T01:26:50;13.20;;;5.60;;
70049;SDS011;57391;51.306;22.680;2023-07-13T01:29:16;12.90;;;5.50;;
70049;SDS011;57391;51.306;22.680;2023-07-13T01:31:43;14.10;;;5.80;;
70049;SDS011;57391;51.306;22.680;2023-07-13T01:34:11;18.10;;;5.60;;
70049;SDS011;57391;51.306;22.680;2023-07-13T01:36:37;12.50;;;5.20;;
70049;SDS011;57391;51.306;22.680;2023-07-13T01:39:06;13.70;;;5.10;;
70049;SDS011;57391;51.306;22.680;2023-07-13T01:41:34;13.80;;;5.20;;
70049;SDS011;57391;51.306;22.680;2023-07-13T01:44:15;14.40;;;5.10;;
70049;SDS011;57391;51.306;22.680;2023-07-13T01:46:42;13.20;;;4.90;;
70049;SDS011;57391;51.306;22.680;2023-07-13T01:49:08;17.60;;;5.60;;
70049;SDS011;57391;51.306;22.680;2023-07-13T01:51:35;12.40;;;5.00;;
70049;SDS011;57391;51.306;22.680;2023-07-13T01:54:02;15.40;;;5.60;;
70049;SDS011;57391;51.306;22.680;2023-07-13T01:56:29;15.00;;;5.90;;
70049;SDS011;57391;51.306;22.680;2023-07-13T01:58:56;12.10;;;5.60;;
70049;SDS011;57391;51.306;22.680;2023-07-13T02:01:23;18.60;;;6.40;;
70049;SDS011;57391;51.306;22.680;2023-07-13T02:03:50;19.60;;;5.80;;
70049;SDS011;57391;51.306;22.680;2023-07-13T02:06:17;11.90;;;5.80;;
70049;SDS011;57391;51.306;22.680;2023-07-13T02:08:44;16.60;;;6.20;;
70049;SDS011;57391;51.306;22.680;2023-07-13T02:11:11;12.30;;;5.70;;
70049;SDS011;57391;51.306;22.680;2023-07-13T02:13:38;14.40;;;5.90;;
70049;SDS011;57391;51.306;22.680;2023-07-13T02:16:05;14.20;;;6.50;;
70049;SDS011;57391;51.306;22.680;2023-07-13T02:18:32;16.60;;;6.00;;
70049;SDS011;57391;51.306;22.680;2023-07-13T02:20:59;13.90;;;6.20;;
70049;SDS011;57391;51.306;22.680;2023-07-13T02:23:26;11.80;;;6.30;;
70049;SDS011;57391;51.306;22.680;2023-07-13T02:25:58;12.30;;;5.80;;
70049;SDS011;57391;51.306;22.680;2023-07-13T02:28:25;14.70;;;6.20;;
70049;SDS011;57391;51.306;22.680;2023-07-13T02:30:52;9.70;;;5.90;;
70049;SDS011;57391;51.306;22.680;2023-07-13T02:33:19;15.90;;;6.60;;
70049;SDS011;57391;51.306;22.680;2023-07-13T02:35:48;15.30;;;5.70;;
70049;SDS011;57391;51.306;22.680;2023-07-13T02:38:15;12.70;;;6.30;;
70049;SDS011;57391;51.306;22.680;2023-07-13T02:40:42;14.70;;;5.80;;
70049;SDS011;57391;51.306;22.680;2023-07-13T02:43:08;17.00;;;6.20;;
70049;SDS011;57391;51.306;22.680;2023-07-13T02:45:35;13.50;;;6.20;;
70049;SDS011;57391;51.306;22.680;2023-07-13T02:48:02;13.70;;;6.70;;
70049;SDS011;57391;51.306;22.680;2023-07-13T02:50:29;12.90;;;6.60;;
70049;SDS011;57391;51.306;22.680;2023-07-13T02:52:56;14.80;;;7.00;;
70049;SDS011;57391;51.306;22.680;2023-07-13T02:55:23;13.20;;;7.00;;
70049;SDS011;57391;51.306;22.680;2023-07-13T02:57:50;16.30;;;7.40;;
70049;SDS011;57391;51.306;22.680;2023-07-13T03:00:17;17.20;;;6.70;;
70049;SDS011;57391;51.306;22.680;2023-07-13T03:02:45;14.40;;;7.10;;
70049;SDS011;57391;51.306;22.680;2023-07-13T03:05:12;13.70;;;7.60;;
70049;SDS011;57391;51.306;22.680;2023-07-13T03:07:40;15.20;;;7.50;;
70049;SDS011;57391;51.306;22.680;2023-07-13T03:10:09;16.30;;;7.40;;
70049;SDS011;57391;51.306;22.680;2023-07-13T03:12:42;18.00;;;7.90;;
70049;SDS011;57391;51.306;22.680;2023-07-13T03:15:13;16.90;;;7.40;;
70049;SDS011;57391;51.306;22.680;2023-07-13T03:17:41;15.40;;;7.90;;
70049;SDS011;57391;51.306;22.680;2023-07-13T03:20:08;13.90;;;7.40;;
70049;SDS011;57391;51.306;22.680;2023-07-13T03:22:36;15.50;;;7.60;;
70049;SDS011;57391;51.306;22.680;2023-07-13T03:25:04;14.10;;;7.50;;
70049;SDS011;57391;51.306;22.680;2023-07-13T03:27:31;19.10;;;7.90;;
70049;SDS011;57391;51.306;22.680;2023-07-13T03:29:58;13.50;;;7.30;;
70049;SDS011;57391;51.306;22.680;2023-07-13T03:32:26;16.90;;;7.80;;
70049;SDS011;57391;51.306;22.680;2023-07-13T03:34:53;20.90;;;8.20;;
70049;SDS011;57391;51.306;22.680;2023-07-13T03:37:20;18.40;;;8.00;;
70049;SDS011;57391;51.306;22.680;2023-07-13T03:39:47;16.60;;;7.80;;
70049;SDS011;57391;51.306;22.680;2023-07-13T03:42:15;17.50;;;8.20;;
70049;SDS011;57391;51.306;22.680;2023-07-13T03:44:42;22.90;;;8.80;;
70049;SDS011;57391;51.306;22.680;2023-07-13T03:47:18;21.10;;;8.20;;
70049;SDS011;57391;51.306;22.680;2023-07-13T03:49:46;14.70;;;8.30;;
70049;SDS011;57391;51.306;22.680;2023-07-13T03:52:13;16.10;;;8.20;;
70049;SDS011;57391;51.306;22.680;2023-07-13T03:54:40;14.20;;;7.90;;
70049;SDS011;57391;51.306;22.680;2023-07-13T03:57:08;17.70;;;7.60;;
70049;SDS011;57391;51.306;22.680;2023-07-13T03:59:35;16.90;;;8.00;;
70049;SDS011;57391;51.306;22.680;2023-07-13T04:02:02;18.00;;;7.80;;
70049;SDS011;57391;51.306;22.680;2023-07-13T04:04:33;18.30;;;8.00;;
70049;SDS011;57391;51.306;22.680;2023-07-13T04:07:00;15.00;;;8.20;;
70049;SDS011;57391;51.306;22.680;2023-07-13T04:09:27;18.90;;;8.20;;
70049;SDS011;57391;51.306;22.680;2023-07-13T04:11:54;17.60;;;8.40;;
70049;SDS011;57391;51.306;22.680;2023-07-13T04:14:21;17.70;;;8.40;;
70049;SDS011;57391;51.306;22.680;2023-07-13T04:16:47;16.20;;;8.00;;
70049;SDS011;57391;51.306;22.680;2023-07-13T04:19:14;17.10;;;7.90;;
70049;SDS011;57391;51.306;22.680;2023-07-13T04:21:41;15.70;;;8.00;;
70049;SDS011;57391;51.306;22.680;2023-07-13T04:24:08;12.60;;;7.50;;
70049;SDS011;57391;51.306;22.680;2023-07-13T04:26:35;14.30;;;7.70;;
70049;SDS011;57391;51.306;22.680;2023-07-13T04:29:02;14.90;;;7.30;;
70049;SDS011;57391;51.306;22.680;2023-07-13T04:31:30;13.10;;;8.10;;
70049;SDS011;57391;51.306;22.680;2023-07-13T04:33:58;16.70;;;8.20;;
70049;SDS011;57391;51.306;22.680;2023-07-13T04:36:25;16.60;;;8.30;;
70049;SDS011;57391;51.306;22.680;2023-07-13T04:38:55;13.10;;;8.60;;
70049;SDS011;57391;51.306;22.680;2023-07-13T04:41:22;12.60;;;7.60;;
70049;SDS011;57391;51.306;22.680;2023-07-13T04:43:49;14.20;;;8.00;;
70049;SDS011;57391;51.306;22.680;2023-07-13T04:46:17;12.90;;;8.40;;
70049;SDS011;57391;51.306;22.680;2023-07-13T04:48:45;14.30;;;8.30;;
70049;SDS011;57391;51.306;22.680;2023-07-13T04:51:13;11.10;;;7.30;;
70049;SDS011;57391;51.306;22.680;2023-07-13T04:53:39;12.90;;;8.10;;
70049;SDS011;57391;51.306;22.680;2023-07-13T04:56:06;14.40;;;8.30;;
70049;SDS011;57391;51.306;22.680;2023-07-13T04:58:33;16.30;;;8.60;;
70049;SDS011;57391;51.306;22.680;2023-07-13T05:01:02;14.30;;;9.10;;
70049;SDS011;57391;51.306;22.680;2023-07-13T05:03:31;15.00;;;9.20;;
70049;SDS011;57391;51.306;22.680;2023-07-13T05:06:00;18.60;;;9.60;;
70049;SDS011;57391;51.306;22.680;2023-07-13T05:08:28;16.50;;;9.40;;
70049;SDS011;57391;51.306;22.680;2023-07-13T05:10:55;14.70;;;9.90;;
70049;SDS011;57391;51.306;22.680;2023-07-13T05:13:22;14.90;;;9.70;;
70049;SDS011;57391;51.306;22.680;2023-07-13T05:16:01;18.60;;;10.20;;
70049;SDS011;57391;51.306;22.680;2023-07-13T05:18:29;16.40;;;9.70;;
70049;SDS011;57391;51.306;22.680;2023-07-13T05:21:06;19.50;;;10.30;;
70049;SDS011;57391;51.306;22.680;2023-07-13T05:23:35;18.00;;;10.30;;
70049;SDS011;57391;51.306;22.680;2023-07-13T05:26:03;15.20;;;9.90;;
70049;SDS011;57391;51.306;22.680;2023-07-13T05:28:31;18.40;;;10.90;;
70049;SDS011;57391;51.306;22.680;2023-07-13T05:30:59;14.60;;;10.80;;
70049;SDS011;57391;51.306;22.680;2023-07-13T05:33:26;15.40;;;10.70;;
70049;SDS011;57391;51.306;22.680;2023-07-13T05:35:54;17.90;;;11.20;;
70049;SDS011;57391;51.306;22.680;2023-07-13T05:38:21;17.10;;;11.30;;
70049;SDS011;57391;51.306;22.680;2023-07-13T05:40:50;15.20;;;10.80;;
70049;SDS011;57391;51.306;22.680;2023-07-13T05:43:17;17.20;;;11.10;;
70049;SDS011;57391;51.306;22.680;2023-07-13T05:45:44;14.20;;;10.80;;
70049;SDS011;57391;51.306;22.680;2023-07-13T05:48:11;14.90;;;11.00;;
70049;SDS011;57391;51.306;22.680;2023-07-13T05:50:38;16.30;;;11.10;;
70049;SDS011;57391;51.306;22.680;2023-07-13T05:53:05;16.00;;;11.90;;
70049;SDS011;57391;51.306;22.680;2023-07-13T05:55:33;16.60;;;11.70;;
70049;SDS011;57391;51.306;22.680;2023-07-13T05:58:00;16.20;;;11.30;;
70049;SDS011;57391;51.306;22.680;2023-07-13T06:00:28;15.50;;;10.90;;
70049;SDS011;57391;51.306;22.680;2023-07-13T06:02:55;15.40;;;11.30;;
70049;SDS011;57391;51.306;22.680;2023-07-13T06:05:23;13.80;;;11.00;;
70049;SDS011;57391;51.306;22.680;2023-07-13T06:07:50;14.10;;;10.60;;
70049;SDS011;57391;51.306;22.680;2023-07-13T06:10:17;14.90;;;10.30;;
70049;SDS011;57391;51.306;22.680;2023-07-13T06:12:44;15.20;;;11.10;;
70049;SDS011;57391;51.306;22.680;2023-07-13T06:15:11;14.60;;;10.60;;
70049;SDS011;57391;51.306;22.680;2023-07-13T06:17:38;13.70;;;10.70;;
70049;SDS011;57391;51.306;22.680;2023-07-13T06:20:06;14.60;;;10.50;;
70049;SDS011;57391;51.306;22.680;2023-07-13T06:22:33;12.60;;;10.50;;
70049;SDS011;57391;51.306;22.680;2023-07-13T06:25:00;13.70;;;9.60;;
70049;SDS011;57391;51.306;22.680;2023-07-13T06:27:27;15.10;;;10.20;;
70049;SDS011;57391;51.306;22.680;2023-07-13T06:29:54;13.40;;;9.50;;
70049;SDS011;57391;51.306;22.680;2023-07-13T06:32:21;13.10;;;9.50;;
70049;SDS011;57391;51.306;22.680;2023-07-13T06:34:48;14.10;;;9.60;;
70049;SDS011;57391;51.306;22.680;2023-07-13T06:37:15;12.80;;;10.10;;
70049;SDS011;57391;51.306;22.680;2023-07-13T06:39:42;12.10;;;8.90;;
70049;SDS011;57391;51.306;22.680;2023-07-13T06:42:09;11.90;;;8.90;;
70049;SDS011;57391;51.306;22.680;2023-07-13T06:44:37;12.50;;;9.20;;
70049;SDS011;57391;51.306;22.680;2023-07-13T06:47:04;13.10;;;9.30;;
70049;SDS011;57391;51.306;22.680;2023-07-13T06:49:31;12.10;;;8.40;;
70049;SDS011;57391;51.306;22.680;2023-07-13T06:51:58;11.90;;;9.00;;
70049;SDS011;57391;51.306;22.680;2023-07-13T06:54:25;11.60;;;8.80;;
70049;SDS011;57391;51.306;22.680;2023-07-13T06:56:52;13.60;;;8.80;;
70049;SDS011;57391;51.306;22.680;2023-07-13T06:59:19;12.60;;;9.90;;
70049;SDS011;57391;51.306;22.680;2023-07-13T07:01:46;10.90;;;8.80;;
70049;SDS011;57391;51.306;22.680;2023-07-13T07:04:13;11.10;;;8.50;;
70049;SDS011;57391;51.306;22.680;2023-07-13T07:06:39;12.60;;;9.40;;
70049;SDS011;57391;51.306;22.680;2023-07-13T07:09:06;11.60;;;8.60;;
70049;SDS011;57391;51.306;22.680;2023-07-13T07:11:33;13.40;;;9.10;;
70049;SDS011;57391;51.306;22.680;2023-07-13T07:14:00;11.70;;;9.00;;
70049;SDS011;57391;51.306;22.680;2023-07-13T07:16:27;11.40;;;8.50;;
70049;SDS011;57391;51.306;22.680;2023-07-13T07:18:53;13.60;;;8.30;;
70049;SDS011;57391;51.306;22.680;2023-07-13T07:21:21;11.30;;;8.70;;
70049;SDS011;57391;51.306;22.680;2023-07-13T07:23:49;10.70;;;7.90;;
70049;SDS011;57391;51.306;22.680;2023-07-13T07:26:18;11.50;;;7.50;;
70049;SDS011;57391;51.306;22.680;2023-07-13T07:28:45;10.60;;;8.00;;
70049;SDS011;57391;51.306;22.680;2023-07-13T07:31:12;11.20;;;8.40;;
70049;SDS011;57391;51.306;22.680;2023-07-13T07:33:39;12.50;;;7.70;;
70049;SDS011;57391;51.306;22.680;2023-07-13T07:36:06;9.40;;;7.10;;
70049;SDS011;57391;51.306;22.680;2023-07-13T07:38:33;10.80;;;7.80;;
70049;SDS011;57391;51.306;22.680;2023-07-13T07:41:04;10.50;;;8.00;;
70049;SDS011;57391;51.306;22.680;2023-07-13T07:43:31;12.20;;;8.00;;
70049;SDS011;57391;51.306;22.680;2023-07-13T07:45:58;11.90;;;8.30;;
70049;SDS011;57391;51.306;22.680;2023-07-13T07:48:25;11.30;;;7.90;;
70049;SDS011;57391;51.306;22.680;2023-07-13T07:50:52;10.40;;;7.40;;
70049;SDS011;57391;51.306;22.680;2023-07-13T07:53:19;11.10;;;7.50;;
70049;SDS011;57391;51.306;22.680;2023-07-13T07:55:46;12.90;;;7.40;;
70049;SDS011;57391;51.306;22.680;2023-07-13T07:58:14;10.90;;;7.90;;
70049;SDS011;57391;51.306;22.680;2023-07-13T08:00:41;10.40;;;7.80;;
70049;SDS011;57391;51.306;22.680;2023-07-13T08:03:09;11.60;;;7.90;;
70049;SDS011;57391;51.306;22.680;2023-07-13T08:05:37;10.80;;;7.90;;
70049;SDS011;57391;51.306;22.680;2023-07-13T08:08:03;11.40;;;7.80;;
70049;SDS011;57391;51.306;22.680;2023-07-13T08:10:30;10.70;;;7.90;;
70049;SDS011;57391;51.306;22.680;2023-07-13T08:12:57;10.30;;;7.40;;
70049;SDS011;57391;51.306;22.680;2023-07-13T08:15:24;10.10;;;7.80;;
70049;SDS011;57391;51.306;22.680;2023-07-13T08:17:51;10.10;;;7.60;;
70049;SDS011;57391;51.306;22.680;2023-07-13T08:20:18;9.40;;;7.20;;
70049;SDS011;57391;51.306;22.680;2023-07-13T08:22:45;12.70;;;7.40;;
70049;SDS011;57391;51.306;22.680;2023-07-13T08:25:13;13.90;;;8.40;;
70049;SDS011;57391;51.306;22.680;2023-07-13T08:27:39;12.70;;;8.50;;
70049;SDS011;57391;51.306;22.680;2023-07-13T08:30:07;11.30;;;8.70;;
70049;SDS011;57391;51.306;22.680;2023-07-13T08:32:36;10.90;;;8.20;;
70049;SDS011;57391;51.306;22.680;2023-07-13T08:35:04;11.90;;;8.70;;
70049;SDS011;57391;51.306;22.680;2023-07-13T08:37:32;11.70;;;8.90;;
70049;SDS011;57391;51.306;22.680;2023-07-13T08:39:59;12.30;;;9.60;;
70049;SDS011;57391;51.306;22.680;2023-07-13T08:42:33;13.10;;;9.80;;
70049;SDS011;57391;51.306;22.680;2023-07-13T08:45:30;13.80;;;10.60;;
70049;SDS011;57391;51.306;22.680;2023-07-13T08:51:00;13.80;;;10.10;;
70049;SDS011;57391;51.306;22.680;2023-07-13T08:53:39;16.90;;;10.40;;
70049;SDS011;57391;51.306;22.680;2023-07-13T08:56:18;17.20;;;10.60;;
70049;SDS011;57391;51.306;22.680;2023-07-13T08:58:54;14.00;;;11.10;;
70049;SDS011;57391;51.306;22.680;2023-07-13T09:01:51;14.00;;;9.90;;
70049;SDS011;57391;51.306;22.680;2023-07-13T09:04:45;12.80;;;9.60;;
70049;SDS011;57391;51.306;22.680;2023-07-13T09:10:28;12.70;;;8.90;;
70049;SDS011;57391;51.306;22.680;2023-07-13T09:15:45;12.50;;;9.20;;
70049;SDS011;57391;51.306;22.680;2023-07-13T09:18:33;13.80;;;10.40;;
70049;SDS011;57391;51.306;22.680;2023-07-13T09:21:09;13.50;;;10.60;;
70049;SDS011;57391;51.306;22.680;2023-07-13T09:23:42;14.40;;;10.40;;
70049;SDS011;57391;51.306;22.680;2023-07-13T09:26:19;16.90;;;11.30;;
70049;SDS011;57391;51.306;22.680;2023-07-13T09:29:03;17.70;;;11.30;;
70049;SDS011;57391;51.306;22.680;2023-07-13T09:31:44;15.70;;;10.90;;
70049;SDS011;57391;51.306;22.680;2023-07-13T09:34:16;13.90;;;11.10;;
70049;SDS011;57391;51.306;22.680;2023-07-13T09:36:43;12.70;;;10.00;;
70049;SDS011;57391;51.306;22.680;2023-07-13T09:42:15;12.50;;;9.60;;
70049;SDS011;57391;51.306;22.680;2023-07-13T09:44:55;13.20;;;10.50;;
70049;SDS011;57391;51.306;22.680;2023-07-13T09:47:31;15.50;;;10.80;;
70049;SDS011;57391;51.306;22.680;2023-07-13T09:50:03;15.30;;;11.30;;
70049;SDS011;57391;51.306;22.680;2023-07-13T09:52:47;15.90;;;10.60;;
70049;SDS011;57391;51.306;22.680;2023-07-13T09:55:34;14.80;;;10.80;;
70049;SDS011;57391;51.306;22.680;2023-07-13T09:58:26;15.20;;;11.00;;
70049;SDS011;57391;51.306;22.680;2023-07-13T10:00:59;14.80;;;11.60;;
70049;SDS011;57391;51.306;22.680;2023-07-13T10:03:31;17.20;;;12.00;;
70049;SDS011;57391;51.306;22.680;2023-07-13T10:06:12;15.30;;;11.50;;
70049;SDS011;57391;51.306;22.680;2023-07-13T10:08:44;14.60;;;11.70;;
70049;SDS011;57391;51.306;22.680;2023-07-13T10:13:45;15.50;;;11.10;;
70049;SDS011;57391;51.306;22.680;2023-07-13T10:16:25;15.90;;;11.50;;
70049;SDS011;57391;51.306;22.680;2023-07-13T10:19:05;14.30;;;11.50;;
70049;SDS011;57391;51.306;22.680;2023-07-13T10:22:18;15.20;;;12.60;;
70049;SDS011;57391;51.306;22.680;2023-07-13T10:24:52;16.80;;;11.40;;
70049;SDS011;57391;51.306;22.680;2023-07-13T10:27:31;15.30;;;12.40;;
70049;SDS011;57391;51.306;22.680;2023-07-13T10:30:14;17.70;;;12.40;;
70049;SDS011;57391;51.306;22.680;2023-07-13T10:32:52;14.80;;;11.70;;
70049;SDS011;57391;51.306;22.680;2023-07-13T10:35:21;18.20;;;12.40;;
70049;SDS011;57391;51.306;22.680;2023-07-13T10:37:54;14.80;;;11.50;;
70049;SDS011;57391;51.306;22.680;2023-07-13T10:41:15;16.30;;;11.90;;
70049;SDS011;57391;51.306;22.680;2023-07-13T10:43:47;15.30;;;11.60;;
70049;SDS011;57391;51.306;22.680;2023-07-13T10:46:20;14.10;;;11.20;;
70049;SDS011;57391;51.306;22.680;2023-07-13T10:48:54;13.20;;;11.00;;
70049;SDS011;57391;51.306;22.680;2023-07-13T10:51:25;12.90;;;10.30;;
70049;SDS011;57391;51.306;22.680;2023-07-13T10:54:32;14.70;;;10.70;;
70049;SDS011;57391;51.306;22.680;2023-07-13T10:57:19;15.20;;;10.10;;
70049;SDS011;57391;51.306;22.680;2023-07-13T11:00:13;14.40;;;9.40;;
70049;SDS011;57391;51.306;22.680;2023-07-13T11:02:42;13.60;;;9.20;;
70049;SDS011;57391;51.306;22.680;2023-07-13T11:05:32;11.80;;;9.40;;
70049;SDS011;57391;51.306;22.680;2023-07-13T11:08:36;12.90;;;9.80;;
70049;SDS011;57391;51.306;22.680;2023-07-13T11:18:49;13.80;;;10.00;;
70049;SDS011;57391;51.306;22.680;2023-07-13T11:22:02;14.40;;;9.90;;
70049;SDS011;57391;51.306;22.680;2023-07-13T11:27:38;12.50;;;9.60;;
70049;SDS011;57391;51.306;22.680;2023-07-13T11:33:02;13.00;;;10.30;;
70049;SDS011;57391;51.306;22.680;2023-07-13T11:38:22;14.20;;;10.40;;
70049;SDS011;57391;51.306;22.680;2023-07-13T11:40:54;13.40;;;10.60;;
70049;SDS011;57391;51.306;22.680;2023-07-13T11:43:24;14.30;;;10.50;;
70049;SDS011;57391;51.306;22.680;2023-07-13T11:45:52;14.90;;;10.10;;
70049;SDS011;57391;51.306;22.680;2023-07-13T11:48:28;12.50;;;10.30;;
70049;SDS011;57391;51.306;22.680;2023-07-13T11:51:03;12.10;;;9.70;;
70049;SDS011;57391;51.306;22.680;2023-07-13T11:53:45;12.20;;;10.10;;
70049;SDS011;57391;51.306;22.680;2023-07-13T11:56:14;14.30;;;10.10;;
70049;SDS011;57391;51.306;22.680;2023-07-13T11:58:42;12.90;;;10.40;;
70049;SDS011;57391;51.306;22.680;2023-07-13T12:01:18;13.30;;;10.40;;
70049;SDS011;57391;51.306;22.680;2023-07-13T12:03:48;14.80;;;10.60;;
70049;SDS011;57391;51.306;22.680;2023-07-13T12:06:36;14.90;;;10.50;;
70049;SDS011;57391;51.306;22.680;2023-07-13T12:09:13;12.50;;;10.10;;
70049;SDS011;57391;51.306;22.680;2023-07-13T12:11:44;15.10;;;10.80;;
70049;SDS011;57391;51.306;22.680;2023-07-13T12:14:15;15.90;;;11.40;;
70049;SDS011;57391;51.306;22.680;2023-07-13T12:16:44;15.40;;;10.40;;
70049;SDS011;57391;51.306;22.680;2023-07-13T12:19:21;13.00;;;10.40;;
70049;SDS011;57391;51.306;22.680;2023-07-13T12:21:54;13.10;;;9.60;;
70049;SDS011;57391;51.306;22.680;2023-07-13T12:24:24;14.20;;;9.50;;
70049;SDS011;57391;51.306;22.680;2023-07-13T12:27:00;11.50;;;9.40;;
70049;SDS011;57391;51.306;22.680;2023-07-13T12:29:32;12.50;;;9.40;;
70049;SDS011;57391;51.306;22.680;2023-07-13T12:31:59;15.10;;;10.10;;
70049;SDS011;57391;51.306;22.680;2023-07-13T12:34:26;13.00;;;8.70;;
70049;SDS011;57391;51.306;22.680;2023-07-13T12:37:02;14.40;;;9.80;;
70049;SDS011;57391;51.306;22.680;2023-07-13T12:39:38;13.40;;;9.00;;
70049;SDS011;57391;51.306;22.680;2023-07-13T12:42:27;10.90;;;8.80;;
70049;SDS011;57391;51.306;22.680;2023-07-13T12:45:21;11.80;;;9.10;;
70049;SDS011;57391;51.306;22.680;2023-07-13T12:47:57;11.20;;;8.90;;
70049;SDS011;57391;51.306;22.680;2023-07-13T12:50:48;12.90;;;8.40;;
70049;SDS011;57391;51.306;22.680;2023-07-13T12:53:21;12.40;;;8.20;;
70049;SDS011;57391;51.306;22.680;2023-07-13T12:55:55;11.40;;;8.70;;
70049;SDS011;57391;51.306;22.680;2023-07-13T13:01:05;10.30;;;8.00;;
70049;SDS011;57391;51.306;22.680;2023-07-13T13:03:36;14.10;;;8.40;;
70049;SDS011;57391;51.306;22.680;2023-07-13T13:08:47;11.00;;;8.50;;
70049;SDS011;57391;51.306;22.680;2023-07-13T13:11:17;10.90;;;7.60;;
70049;SDS011;57391;51.306;22.680;2023-07-13T13:13:46;11.10;;;8.50;;
70049;SDS011;57391;51.306;22.680;2023-07-13T13:19:05;11.20;;;8.00;;
70049;SDS011;57391;51.306;22.680;2023-07-13T13:21:37;12.60;;;8.60;;
70049;SDS011;57391;51.306;22.680;2023-07-13T13:24:11;12.70;;;8.50;;
70049;SDS011;57391;51.306;22.680;2023-07-13T13:26:44;12.80;;;8.00;;
70049;SDS011;57391;51.306;22.680;2023-07-13T13:29:17;13.50;;;8.10;;
70049;SDS011;57391;51.306;22.680;2023-07-13T13:31:47;11.80;;;8.70;;
70049;SDS011;57391;51.306;22.680;2023-07-13T13:34:16;12.80;;;8.30;;
70049;SDS011;57391;51.306;22.680;2023-07-13T13:36:45;10.50;;;8.00;;
70049;SDS011;57391;51.306;22.680;2023-07-13T13:39:24;9.90;;;8.00;;
70049;SDS011;57391;51.306;22.680;2023-07-13T13:41:54;12.10;;;8.10;;
70049;SDS011;57391;51.306;22.680;2023-07-13T13:44:21;12.10;;;8.40;;
70049;SDS011;57391;51.306;22.680;2023-07-13T13:46:55;9.80;;;7.80;;
70049;SDS011;57391;51.306;22.680;2023-07-13T13:49:26;11.50;;;8.30;;
70049;SDS011;57391;51.306;22.680;2023-07-13T13:51:54;9.90;;;7.60;;
70049;SDS011;57391;51.306;22.680;2023-07-13T13:54:23;11.20;;;7.80;;
70049;SDS011;57391;51.306;22.680;2023-07-13T13:56:52;11.40;;;8.20;;
70049;SDS011;57391;51.306;22.680;2023-07-13T13:59:19;9.70;;;8.20;;
70049;SDS011;57391;51.306;22.680;2023-07-13T14:01:47;10.00;;;7.80;;
70049;SDS011;57391;51.306;22.680;2023-07-13T14:04:21;11.20;;;7.90;;
70049;SDS011;57391;51.306;22.680;2023-07-13T14:06:49;12.00;;;8.00;;
70049;SDS011;57391;51.306;22.680;2023-07-13T14:09:18;11.60;;;8.70;;
70049;SDS011;57391;51.306;22.680;2023-07-13T14:11:48;10.40;;;8.20;;
70049;SDS011;57391;51.306;22.680;2023-07-13T14:14:21;9.40;;;7.80;;
70049;SDS011;57391;51.306;22.680;2023-07-13T14:16:51;10.30;;;7.90;;
70049;SDS011;57391;51.306;22.680;2023-07-13T14:19:20;11.50;;;8.20;;
70049;SDS011;57391;51.306;22.680;2023-07-13T14:21:47;11.20;;;7.90;;
70049;SDS011;57391;51.306;22.680;2023-07-13T14:24:15;11.40;;;8.40;;
70049;SDS011;57391;51.306;22.680;2023-07-13T14:26:42;11.10;;;8.30;;
70049;SDS011;57391;51.306;22.680;2023-07-13T14:29:17;11.80;;;8.40;;
70049;SDS011;57391;51.306;22.680;2023-07-13T14:31:45;12.80;;;7.90;;
70049;SDS011;57391;51.306;22.680;2023-07-13T14:34:13;11.40;;;8.50;;
70049;SDS011;57391;51.306;22.680;2023-07-13T14:36:47;12.60;;;8.40;;
70049;SDS011;57391;51.306;22.680;2023-07-13T14:39:21;12.80;;;8.30;;
70049;SDS011;57391;51.306;22.680;2023-07-13T14:41:52;10.70;;;8.10;;
70049;SDS011;57391;51.306;22.680;2023-07-13T14:44:24;10.90;;;8.40;;
70049;SDS011;57391;51.306;22.680;2023-07-13T14:46:57;11.30;;;8.20;;
70049;SDS011;57391;51.306;22.680;2023-07-13T14:49:29;12.10;;;8.50;;
70049;SDS011;57391;51.306;22.680;2023-07-13T14:52:11;11.00;;;7.70;;
70049;SDS011;57391;51.306;22.680;2023-07-13T14:54:43;11.90;;;8.80;;
70049;SDS011;57391;51.306;22.680;2023-07-13T14:57:14;12.90;;;9.30;;
70049;SDS011;57391;51.306;22.680;2023-07-13T14:59:48;14.90;;;9.00;;
70049;SDS011;57391;51.306;22.680;2023-07-13T15:02:31;10.10;;;8.60;;
70049;SDS011;57391;51.306;22.680;2023-07-13T15:05:01;15.90;;;9.10;;
70049;SDS011;57391;51.306;22.680;2023-07-13T15:07:32;13.90;;;9.70;;
70049;SDS011;57391;51.306;22.680;2023-07-13T15:10:00;15.10;;;9.90;;
70049;SDS011;57391;51.306;22.680;2023-07-13T15:12:27;16.70;;;9.90;;
70049;SDS011;57391;51.306;22.680;2023-07-13T15:14:55;14.10;;;10.70;;
70049;SDS011;57391;51.306;22.680;2023-07-13T15:17:37;13.40;;;10.50;;
70049;SDS011;57391;51.306;22.680;2023-07-13T15:22:48;9.20;;;5.90;;